FOON/MVB METAR and TAF weather

Enter ICAO airport designator
Station Type Date Time Source
FOON METAR 2022/01/19 18:00 UTC NOAA

FOON 191800Z /////KT 9999 FEW013 FEW020CB 23/22 Q1012


Station Type Date Time Source
FOON Decoded METAR 2022/01/19 18:00 UTC NOAA

Franceville / Mvengue, Gabon (FOON) 01-39S 013-26E
Jan 19, 2022 - 01:00 PM EST / 2022.01.19 1800 UTC
Visibility: greater than 7 mile(s):0
Sky conditions: mostly clear
Weather: Cumulonimbus clouds observed
Temperature: 73 F (23 C)
Dew Point: 71 F (22 C)
Relative Humidity: 94%
Pressure (altimeter): 29.88 in. Hg (1012 hPa)
ob: FOON 191800Z /////KT 9999 FEW013 FEW020CB 23/22 Q1012
cycle: 18

Station Type Date Time Source
FOON TAF 2012/02/17 18:21 UTC NOAA

TAF TAF FOON 151600Z 1518/1618 20004KT 9999 BKN006
TEMPO 1603/1607 0200 FG OVC002
BECMG 1612/1614 TS SCT015 FEW020CB BKN030

Example: see airport list